Date,TemperatureHighF,TemperatureAvgF,TemperatureLowF,DewpointHighF,DewpointAvgF,DewpointLowF,HumidityHigh,HumidityAvg,HumidityLow,PressureMaxIn,PressureMinIn,WindSpeedMaxMPH,WindSpeedAvgMPH,GustSpeedMaxMPH,PrecipitationSumIn
2013-1-1,48.1,45.8,43.1,46.5,43.1,39.9,94,90,86,29.97,29.83,4,0,4,0.07
2013-1-2,47.2,42.6,38.4,42.3,39.0,36.7,97,88,72,30.10,29.91,4,0,4,0.20
2013-1-3,44.0,37.8,27.0,39.0,35.4,26.0,96,91,79,30.17,30.05,1,0,4,0.00
2013-1-4,49.8,34.8,24.4,31.0,25.1,21.7,97,72,36,30.24,30.10,5,0,5,0.00
2013-1-5,51.2,36.7,25.9,33.0,26.7,21.8,86,69,36,30.29,30.15,5,0,5,0.00
2013-1-6,54.1,42.7,35.6,40.4,35.9,30.3,93,77,54,30.18,29.95,2,0,5,0.00
2013-1-7,53.7,36.5,27.3,36.8,30.5,26.1,97,81,45,30.35,30.08,4,0,5,0.00
2013-1-8,56.9,39.4,26.1,42.2,34.3,25.1,97,84,52,30.39,30.27,1,0,5,0.00
2013-1-9,66.7,47.1,32.9,55.2,42.9,31.9,98,87,63,30.35,30.24,5,0,5,0.00
2013-1-10,64.6,50.0,41.9,48.5,43.6,37.8,98,81,51,30.44,30.31,2,0,5,0.00
2013-1-11,48.3,45.2,40.2,47.2,42.5,36.1,97,90,69,30.34,30.06,1,0,5,0.11
2013-1-12,71.6,56.9,47.2,64.7,54.9,46.2,99,93,76,30.07,30.00,3,0,5,0.01
2013-1-13,61.6,54.7,52.1,61.3,54.1,51.3,99,98,97,30.03,29.98,1,0,5,0.00
2013-1-20,48.9,38.5,32.1,35.8,32.5,29.2,89,79,60,30.07,30.01,0,0,10,0.00
2013-1-21,68.1,43.6,25.9,35.3,27.2,17.0,96,60,23,30.06,29.83,9,0,10,0.00
2013-1-22,47.2,33.2,20.1,19.9,9.7,-1.0,73,40,14,30.27,29.92,7,0,10,0.00
2013-1-23,49.4,29.1,15.5,23.5,14.1,5.3,89,58,25,30.36,30.01,6,0,10,0.00
2013-1-24,48.4,32.4,19.6,25.7,14.5,4.1,82,51,20,30.50,29.93,7,0,10,0.00
2013-1-25,26.5,23.3,17.9,24.2,16.4,6.3,91,75,46,30.50,30.09,4,0,10,0.01
2013-1-26,39.6,30.4,23.9,33.9,27.6,22.2,94,89,75,30.39,30.07,2,0,10,0.03
2013-1-27,53.8,32.4,19.0,32.2,24.7,17.1,94,76,38,30.59,30.38,4,0,10,0.08
2013-1-28,52.2,42.8,32.0,46.4,36.2,27.1,90,78,55,30.48,30.19,5,0,10,0.03
2013-1-29,82.1,60.8,47.4,58.0,52.3,45.0,94,76,42,30.20,30.00,6,0,10,0.00
2013-1-30,74.2,67.1,61.0,64.6,61.6,56.8,93,83,71,30.02,29.35,18,2,18,0.21
2013-1-31,64.8,46.5,30.0,56.8,31.2,19.5,90,58,26,29.98,29.39,13,1,18,0.13
2013-2-1,49.2,35.6,21.5,29.1,15.4,5.2,81,46,20,30.37,29.83,10,0,18,0.00
2013-2-2,47.4,32.5,17.3,34.4,15.2,8.4,84,52,24,30.38,30.01,9,0,18,0.00
2013-2-3,55.1,39.6,30.8,34.8,29.1,23.5,95,69,36,30.02,29.82,7,0,18,0.01
2013-2-4,42.4,31.6,23.3,28.1,23.4,20.5,90,73,50,30.08,29.96,3,0,18,0.00
2013-2-5,67.5,46.5,33.2,37.4,32.3,27.4,88,60,29,29.98,29.85,5,0,18,0.00
2013-2-6,74.0,44.3,27.3,36.6,29.4,24.5,95,65,18,30.25,29.94,6,0,18,0.00
2013-2-7,48.6,39.5,30.5,40.3,35.0,27.1,95,85,62,30.32,30.00,4,0,18,0.65
2013-2-8,61.7,45.1,37.6,48.5,39.1,28.8,95,80,60,30.02,29.78,6,0,18,0.30
2013-2-9,66.3,40.6,26.1,29.1,24.8,19.1,94,60,18,30.33,30.01,6,0,18,0.00
2013-2-10,60.2,39.4,22.5,37.4,24.5,20.5,94,62,24,30.48,30.17,6,0,18,0.00
2013-2-11,61.1,54.5,41.7,58.8,52.5,36.1,97,93,85,30.19,29.87,7,0,18,0.05
2013-2-12,69.3,52.2,42.8,51.6,36.6,26.5,95,60,22,30.05,29.89,5,0,18,0.00
2013-2-13,47.2,44.9,38.5,45.0,42.4,34.4,95,91,75,29.92,29.60,10,0,18,0.39
2013-2-14,56.7,40.3,28.9,36.4,31.9,27.6,96,75,37,30.05,29.80,5,0,18,0.00
2013-2-15,71.8,45.7,27.6,41.5,32.0,25.9,95,67,21,30.07,29.89,6,0,18,0.00
2013-2-16,45.1,35.3,28.3,34.6,31.8,24.4,94,87,70,29.95,29.82,4,0,18,0.23
2013-2-17,46.1,29.3,19.0,24.7,17.2,8.6,92,65,25,30.26,29.89,9,0,18,0.02
2013-2-18,54.4,29.4,14.5,26.0,18.2,12.6,93,69,26,30.39,30.21,5,0,18,0.00
2013-2-19,48.9,40.3,31.2,46.8,35.6,25.1,96,84,59,30.22,29.83,11,0,18,0.25
2013-2-20,55.1,36.9,22.7,30.0,22.9,13.9,97,64,21,30.12,29.93,12,0,18,0.01
2013-2-21,58.4,39.8,22.4,30.4,21.9,17.3,89,53,22,30.22,30.08,7,0,18,0.00
2013-2-22,41.2,35.8,32.1,34.4,31.6,22.5,95,86,48,30.31,30.12,2,0,18,0.25
2013-2-23,43.2,39.4,35.6,41.2,38.0,34.3,96,95,92,30.15,29.80,2,0,18,0.37
2013-2-24,65.5,47.8,31.3,46.3,37.2,26.6,98,72,28,30.01,29.77,6,0,18,0.01
2013-2-25,44.7,35.5,29.0,29.4,25.9,23.6,95,70,46,30.20,30.00,4,0,18,0.00
2013-2-26,54.3,42.7,30.7,53.8,39.4,25.8,98,89,67,30.13,29.53,9,0,18,0.77
2013-2-27,61.9,46.5,40.2,44.2,40.3,36.0,97,82,40,29.74,29.59,9,0,18,0.00
2013-3-2,52.9,40.5,26.9,30.4,25.6,19.8,93,57,39,29.90,29.78,9,0,18,0.00
2013-3-3,49.0,34.8,23.2,25.2,20.8,17.6,88,59,34,29.95,29.82,12,0,12,0.00
2013-3-4,53.7,35.2,18.9,25.1,18.6,14.5,90,56,22,30.10,29.95,7,0,12,0.00
2013-3-5,48.9,40.4,31.1,42.8,35.3,23.3,96,83,43,30.05,29.54,4,0,12,0.37
2013-3-6,48.7,41.0,35.3,41.7,32.6,27.8,96,73,51,30.01,29.50,17,1,17,0.03
2013-3-7,53.7,40.5,28.9,33.4,29.0,24.7,90,65,43,30.21,30.00,10,0,17,0.00
2013-3-8,59.1,42.1,26.6,30.5,26.3,23.6,90,58,29,30.27,30.13,11,0,17,0.00
2013-3-9,69.2,44.9,26.5,37.4,29.2,24.0,93,61,23,30.32,30.20,5,0,17,0.00
2013-3-10,72.2,47.8,27.4,37.2,30.4,23.9,96,60,21,30.30,30.16,7,0,17,0.00
2013-3-11,68.7,53.2,35.3,53.2,43.4,27.2,89,70,54,30.20,29.88,10,1,17,0.00
2013-3-12,70.0,59.7,46.9,61.2,51.8,30.1,96,77,42,29.92,29.71,9,0,17,0.77
2013-3-13,57.9,44.8,30.6,34.3,28.0,18.3,95,55,31,30.11,29.92,10,1,17,0.00
2013-3-14,56.7,40.6,28.8,25.6,20.1,16.9,70,46,23,30.22,30.08,10,0,17,0.00
2013-3-15,64.3,44.6,23.1,37.1,29.1,20.5,92,59,30,30.16,29.85,14,0,17,0.00
2013-3-16,78.3,59.8,41.5,54.4,45.1,36.3,87,62,35,29.85,29.60,13,1,17,0.00
2013-3-17,56.2,48.6,39.7,50.9,43.4,37.5,97,83,59,30.14,29.79,4,0,17,0.00
2013-3-18,41.1,39.2,37.5,39.6,37.6,35.9,95,94,92,30.18,29.82,4,0,17,0.26
2013-3-19,69.5,51.4,38.7,47.5,32.4,10.3,97,59,20,29.99,29.80,10,1,17,0.00
2013-3-20,59.4,45.8,34.1,28.5,18.1,9.5,77,35,19,30.07,29.76,11,0,17,0.00
2013-3-21,46.6,38.2,33.5,34.5,25.6,16.2,80,62,31,29.80,29.71,9,0,17,0.00
2013-3-22,52.7,40.4,19.0,25.3,18.0,11.6,84,45,22,30.07,29.93,7,0,7,0.00
2013-3-23,60.0,43.1,28.6,33.5,28.7,19.4,87,61,29,30.03,29.87,5,0,7,0.00
2013-3-24,40.9,36.9,31.2,38.8,34.8,28.8,95,92,84,29.90,29.56,4,0,7,0.73
2013-3-25,49.7,40.0,34.0,38.7,30.0,23.4,95,71,41,29.78,29.54,12,1,13,0.02
2013-3-26,51.1,41.0,27.5,31.5,27.3,24.0,90,59,43,30.09,29.78,10,0,13,0.00
2013-3-27,54.7,39.7,26.5,29.1,25.1,20.8,92,60,30,30.20,30.08,12,1,13,0.00
2013-3-28,59.4,41.5,24.4,30.3,25.5,22.4,93,59,27,30.26,30.13,10,0,13,0.00
2013-3-29,62.7,43.8,25.0,32.8,27.6,22.9,93,59,25,30.31,30.15,7,0,13,0.00
2013-3-30,69.7,51.9,34.4,43.7,35.1,28.6,90,59,24,30.21,30.04,10,0,13,0.00
2013-3-31,67.8,56.0,47.4,57.5,50.6,43.5,96,83,61,30.05,29.76,12,0,13,0.64
2013-4-1,74.6,59.1,46.9,53.7,47.1,35.7,98,70,31,29.95,29.77,9,0,13,0.08
2013-4-2,61.9,47.9,31.2,36.3,30.1,21.2,94,56,22,30.13,29.95,10,0,13,0.00
2013-4-3,78.4,49.8,30.2,35.2,29.2,20.3,91,54,13,30.27,30.12,1,0,13,0.00
2013-4-4,50.8,42.1,38.3,39.6,30.4,21.5,95,65,43,30.34,29.91,6,0,13,0.91
2013-4-5,67.3,49.1,37.7,51.0,41.1,36.1,96,77,39,29.99,29.84,5,0,5,0.05
2013-4-6,69.1,50.4,32.4,38.6,33.6,26.1,97,60,23,30.23,29.99,5,0,6,0.00
2013-4-7,73.9,55.8,35.0,46.5,39.9,32.6,94,59,32,30.25,30.07,13,0,13,0.00
2013-4-8,81.3,66.8,50.7,58.4,52.7,44.3,95,64,38,30.13,30.00,11,1,13,0.00
2013-4-9,88.0,71.7,53.4,61.3,56.4,51.8,97,63,34,30.13,30.00,11,0,13,0.00
2013-4-10,90.7,73.8,57.5,66.1,59.1,54.6,93,63,37,30.05,29.89,11,1,13,0.00
2013-4-11,82.4,71.3,60.8,65.5,60.7,56.6,91,71,47,29.94,29.74,11,1,13,0.00
2013-4-12,82.7,72.2,61.6,70.4,62.1,42.9,95,73,44,29.75,29.54,14,1,14,0.77
2013-4-13,70.4,56.9,48.5,47.2,45.5,40.3,88,68,34,29.97,29.69,3,0,14,0.00
2013-4-14,84.3,62.9,40.0,55.6,44.5,37.9,97,60,21,30.07,29.96,7,0,7,0.00
2013-4-15,73.8,63.6,55.7,59.6,56.8,49.3,95,80,55,30.17,29.97,5,0,7,0.08
2013-4-16,79.2,66.4,57.3,63.6,58.9,55.6,94,78,52,30.26,30.15,5,0,7,0.00
2013-4-17,81.3,68.5,55.9,66.6,61.2,54.5,97,79,54,30.19,30.06,7,0,7,0.00
2013-4-18,81.2,70.6,60.1,65.3,60.6,57.2,92,72,47,30.15,29.99,10,0,10,0.00
2013-4-19,82.5,70.2,64.3,68.6,64.5,60.9,94,83,59,30.00,29.66,18,1,18,0.89
2013-4-20,65.5,55.8,41.6,62.1,41.0,31.2,93,62,30,30.24,29.74,9,0,18,0.01
2013-4-21,66.4,50.7,38.2,44.6,39.0,34.7,96,68,38,30.47,30.24,6,0,18,0.00
2013-4-22,66.2,50.8,34.5,45.2,38.6,32.7,95,66,37,30.45,30.24,5,0,18,0.01
2013-4-23,69.9,55.4,46.2,52.8,47.7,43.3,94,77,49,30.26,30.08,5,0,18,0.06
2013-4-24,76.6,62.9,47.7,59.3,53.7,46.3,97,74,50,30.10,29.93,15,1,18,0.00
2013-4-25,73.2,60.3,45.2,56.7,45.6,38.0,93,61,34,30.24,29.96,7,0,18,0.00
2013-4-26,75.6,56.4,37.2,48.5,41.0,34.0,97,65,24,30.39,30.24,10,0,18,0.00
2013-4-27,77.1,61.9,50.0,55.1,47.9,39.6,92,63,33,30.34,30.22,6,0,18,0.00
2013-4-28,58.9,55.8,53.4,55.4,52.9,48.1,96,90,73,30.23,30.06,2,0,18,0.61
2013-4-29,71.8,61.5,54.8,63.2,58.3,53.3,97,90,68,30.07,29.93,3,0,18,0.39
2013-4-30,67.5,59.2,51.9,60.0,56.2,50.5,98,90,75,30.16,29.97,4,0,18,0.00
2013-5-1,63.6,58.5,52.3,59.6,56.2,50.8,97,92,85,30.29,30.13,6,0,18,0.01
2013-5-2,63.0,57.5,49.8,58.1,54.6,48.6,96,90,82,30.30,30.24,4,0,18,0.00
2013-5-3,70.2,56.2,43.7,57.1,48.9,41.5,98,79,48,30.25,30.14,4,0,18,0.00
2013-5-4,65.0,55.4,48.0,54.4,48.9,44.1,89,79,61,30.19,30.06,7,0,18,0.00
2013-5-5,58.5,54.1,49.7,54.9,50.4,45.9,94,87,81,30.08,29.96,5,0,18,0.02
2013-5-6,64.7,58.8,55.2,62.6,57.6,53.5,98,96,90,29.98,29.80,12,0,18,1.21
2013-5-7,71.0,59.9,50.4,60.2,53.9,47.5,98,83,47,29.92,29.82,8,0,18,0.02
2013-5-8,69.1,60.3,52.4,61.3,55.8,50.7,97,86,64,29.97,29.89,6,0,18,0.15
2013-5-9,80.8,65.5,52.1,64.5,57.6,51.3,98,79,46,30.02,29.94,6,0,18,0.01
2013-5-10,86.7,70.4,53.5,65.8,59.7,52.4,98,73,41,30.02,29.89,11,0,18,0.00
2013-5-11,82.3,71.6,64.9,66.9,63.1,58.8,94,75,51,29.90,29.74,9,0,18,0.03
2013-5-12,73.3,63.7,48.9,63.3,50.2,38.0,96,65,33,30.00,29.76,10,0,18,0.01
2013-5-13,68.0,54.1,40.8,44.9,39.5,32.2,95,63,30,30.15,29.99,10,0,10,0.00
2013-5-14,72.0,55.8,36.8,47.2,40.4,35.2,97,62,29,30.23,30.03,9,0,10,0.00
2013-5-15,88.0,70.1,51.4,64.7,55.5,43.5,81,61,42,30.04,29.85,10,0,12,0.00
2013-5-16,86.3,72.1,57.9,67.1,61.2,56.5,97,72,40,29.93,29.85,9,0,12,0.00
2013-5-17,90.9,74.0,59.6,67.5,62.8,57.9,96,72,39,30.04,29.93,5,0,12,0.00
2013-5-18,76.6,68.1,59.7,70.4,64.7,58.6,97,89,73,30.12,30.02,9,0,12,0.97
2013-5-19,77.0,68.0,63.3,71.6,66.1,62.2,98,94,73,30.11,30.01,4,0,12,1.04
2013-5-20,79.8,69.7,66.4,71.8,67.7,65.4,99,94,74,30.07,29.98,4,0,12,0.81
2013-5-21,85.8,74.1,67.5,74.6,69.5,66.5,98,87,64,30.01,29.89,7,0,12,0.01
2013-5-22,84.8,74.6,69.2,72.0,68.7,66.6,95,83,60,29.98,29.86,6,0,12,0.02
2013-5-23,81.0,72.0,65.2,71.4,67.6,64.2,98,87,67,29.91,29.77,4,0,12,0.80
2013-5-24,72.0,63.5,48.7,64.2,54.1,42.4,98,74,43,30.15,29.78,14,1,14,0.01
2013-5-25,77.5,57.1,41.1,54.9,43.2,36.5,96,66,26,30.24,30.10,9,0,14,24.96
2013-5-26,80.1,60.0,44.2,55.6,47.3,42.2,94,69,29,30.25,30.14,5,0,14,24.96
2013-5-27,84.8,65.3,48.2,60.2,53.4,46.6,97,70,39,30.24,30.11,6,0,14,24.96
2013-5-28,87.3,72.9,59.1,68.4,63.0,54.7,95,73,50,30.20,30.09,11,0,14,24.96
2013-5-29,91.0,74.7,61.4,69.9,63.7,59.4,96,71,43,30.19,30.11,8,0,14,24.96
2013-5-30,92.3,74.9,61.4,70.4,64.9,59.6,97,74,42,30.23,30.14,7,0,14,24.96
2013-5-31,92.0,75.7,63.2,70.7,66.0,61.5,98,75,41,30.18,30.06,6,0,14,24.96
2013-6-1,89.7,77.3,66.6,71.7,66.8,63.4,96,72,44,30.09,29.98,10,0,14,24.96
2013-6-2,87.3,77.8,68.0,71.3,68.0,65.1,94,73,54,30.00,29.86,10,1,14,0.11
2013-6-3,84.5,73.1,64.9,82.5,71.6,64.6,99,95,81,29.91,29.78,11,0,14,0.16
2013-6-4,76.3,67.1,61.5,69.2,64.9,61.2,99,93,74,30.07,29.90,4,0,14,31.68
2013-6-5,84.3,70.7,59.5,67.4,63.5,59.2,100,80,51,30.10,29.98,5,0,14,31.68
2013-6-6,74.1,70.2,64.2,72.7,67.4,59.7,98,91,76,30.00,29.77,5,0,14,0.42
2013-6-7,72.6,69.7,67.7,72.0,69.3,67.4,100,99,97,29.81,29.50,4,0,14,2.51
2013-6-8,84.8,72.6,64.4,72.4,68.1,63.7,100,88,57,30.06,29.76,6,0,14,0.03
2013-6-9,90.5,76.4,63.7,75.7,69.9,63.4,100,82,54,30.12,30.00,10,0,14,102.96
2013-6-10,84.0,73.9,71.3,77.7,71.9,69.6,98,94,76,30.05,29.84,12,0,14,0.70
2013-6-11,86.7,75.7,66.4,72.2,68.1,65.4,97,79,52,29.91,29.85,7,0,14,119.76
2013-6-12,91.2,76.9,61.9,77.1,70.1,61.4,100,81,54,29.93,29.81,7,0,14,119.76
2013-6-13,94.7,78.4,66.3,78.0,71.7,63.1,99,83,44,29.81,29.55,15,0,15,0.27
2013-6-14,84.0,69.1,56.8,66.8,61.5,56.2,99,80,48,29.98,29.67,5,0,15,0.00
2013-6-15,85.7,70.2,56.0,69.1,61.8,55.5,99,78,46,30.08,29.97,7,0,15,0.00
2013-6-16,87.5,75.7,63.5,73.8,66.4,60.1,96,74,56,30.08,29.95,10,1,15,0.00
2013-6-17,87.5,76.9,70.8,77.4,69.8,65.8,88,79,64,29.98,29.88,6,0,15,0.00
2013-6-18,83.9,73.2,67.9,75.4,70.1,67.0,98,90,73,29.93,29.72,8,0,15,0.47
2013-6-19,84.5,71.7,61.7,72.8,67.4,61.1,99,88,64,30.08,29.84,1,0,15,0.00
2013-6-20,86.8,72.3,62.0,70.0,64.6,61.3,99,79,48,30.20,30.07,3,0,15,0.00
2013-6-21,87.7,70.2,55.3,66.8,59.9,54.5,98,74,40,30.24,30.16,3,0,15,0.00
2013-6-22,84.0,72.1,62.3,74.8,69.2,61.2,98,91,69,30.18,30.08,3,0,15,0.31
2013-6-23,91.8,76.4,66.9,79.1,71.6,66.3,99,86,57,30.17,30.08,4,0,15,0.00
2013-6-24,88.8,77.1,69.2,78.3,72.3,68.3,98,86,63,30.16,30.04,7,0,15,0.00
2013-6-25,92.4,78.1,69.3,79.4,71.9,67.9,97,83,58,30.08,29.96,6,0,15,0.00
2013-6-26,92.0,77.1,68.5,78.6,71.4,65.2,98,84,57,29.99,29.84,7,0,15,0.43
2013-6-27,90.2,78.0,67.3,77.4,72.3,66.7,98,84,58,29.89,29.67,9,0,15,0.00
2013-6-28,92.3,78.2,70.7,77.3,72.3,69.5,98,84,57,29.70,29.51,13,0,15,0.33
2013-6-29,87.4,76.4,69.0,77.0,71.8,68.4,98,87,66,29.67,29.54,6,0,15,0.10
2013-6-30,89.8,74.5,69.1,77.8,71.2,67.8,98,90,61,29.81,29.66,7,0,15,0.80
2013-7-1,83.1,74.7,69.5,75.3,71.9,68.8,99,91,71,29.94,29.80,11,0,15,1.11
2013-7-2,76.3,73.3,71.6,74.4,72.0,70.1,99,96,91,30.14,29.94,7,0,15,0.52
2013-7-3,90.5,76.1,72.2,79.2,73.9,69.5,99,94,65,30.19,30.10,7,0,15,0.64
2013-7-4,89.6,78.5,72.0,78.0,74.0,71.4,99,87,66,30.24,30.13,5,0,15,0.09
2013-7-5,91.8,81.6,72.2,79.1,74.6,71.6,99,81,59,30.23,30.11,7,0,15,0.00
2013-7-6,91.3,79.9,72.5,77.8,73.4,70.6,97,82,58,30.21,30.06,4,0,7,0.00
2013-7-7,88.8,77.6,68.8,78.6,72.7,67.8,98,86,66,30.14,30.01,9,0,9,0.24
2013-7-8,90.8,77.7,70.2,77.8,73.7,69.6,99,88,58,30.13,30.05,3,0,9,0.68
2013-7-9,88.3,77.2,71.2,79.4,74.3,69.7,98,91,72,30.11,30.01,9,0,9,0.06
2013-7-10,89.2,78.7,71.9,78.3,73.7,69.7,98,86,66,30.06,29.89,11,0,11,1.51
2013-7-11,79.2,74.6,72.4,75.8,73.3,71.4,99,96,86,29.94,29.83,4,0,11,0.35
2013-7-12,76.0,72.0,69.2,72.3,70.6,68.5,99,96,86,29.99,29.83,2,0,11,0.05
2013-7-13,77.9,72.8,68.6,76.5,72.1,68.0,99,97,93,30.13,29.98,1,0,11,0.24
2013-7-14,91.3,78.4,70.9,79.8,74.4,70.6,100,89,63,30.25,30.13,3,0,11,0.05
2013-7-15,95.2,78.2,66.9,80.1,72.7,66.6,100,85,53,30.28,30.20,2,0,11,0.01
2013-7-16,96.0,80.3,66.8,82.7,74.1,66.5,100,83,56,30.24,30.13,3,0,11,0.00
2013-7-17,95.7,82.8,73.4,81.5,76.8,72.8,99,84,55,30.17,30.06,1,0,11,0.00
2013-7-18,98.0,82.5,71.5,83.2,76.2,70.9,99,83,50,30.10,29.98,4,0,11,0.00
2013-7-19,92.5,81.3,73.4,79.8,75.3,72.6,98,83,61,30.05,29.93,7,0,11,0.00
2013-7-20,88.8,79.7,73.9,79.6,74.7,71.5,96,85,69,29.97,29.87,10,0,11,0.01
2013-7-21,90.8,78.5,72.9,79.7,74.0,71.6,97,87,66,29.94,29.85,7,0,11,0.01
2013-7-22,89.0,77.8,70.3,78.0,73.3,69.6,99,87,66,29.91,29.78,5,0,11,0.00
2013-7-23,92.2,80.2,72.2,78.2,73.5,71.0,97,82,57,29.80,29.67,6,0,11,0.00
2013-7-24,96.2,79.9,68.1,77.6,71.9,67.5,99,79,41,29.79,29.69,3,0,11,0.00
2013-7-25,80.8,72.0,65.4,72.6,68.4,64.5,98,89,71,30.00,29.78,2,0,11,0.44
2013-7-26,87.7,72.8,61.3,73.1,66.2,60.6,99,82,52,30.07,29.98,3,0,11,0.00
2013-7-27,87.7,71.7,64.8,74.4,68.5,64.2,99,91,59,30.01,29.90,6,0,11,0.66
2013-7-28,88.9,76.2,67.9,76.1,71.2,67.3,99,86,58,29.95,29.86,5,0,11,0.01
2013-7-29,89.0,74.9,64.8,71.2,67.6,63.5,99,81,47,30.11,29.93,4,0,11,0.00
2013-7-30,91.0,73.1,58.6,73.7,66.2,58.0,99,82,46,30.19,30.10,2,0,11,0.00
2013-7-31,84.3,75.1,69.5,74.9,71.5,68.9,99,89,67,30.11,29.95,3,0,11,0.41
2013-8-1,87.1,75.4,70.1,77.7,71.9,66.8,98,89,66,29.97,29.81,6,0,11,0.12
2013-8-2,91.0,75.8,65.2,75.9,70.2,64.6,99,85,50,29.97,29.86,4,0,11,0.97
2013-8-3,91.3,75.3,67.7,79.7,72.5,67.1,100,92,64,29.97,29.87,6,0,11,0.09
2013-8-4,87.1,74.8,65.7,74.4,69.2,63.3,99,85,51,29.99,29.85,4,0,11,0.00
2013-8-5,85.7,72.7,62.6,72.3,66.8,62.0,99,84,54,30.06,29.96,3,0,11,0.00
2013-8-6,82.1,72.4,64.9,72.6,67.4,63.6,98,85,67,30.02,29.94,11,0,11,0.43
2013-8-7,88.0,75.8,66.9,74.3,70.7,65.3,98,86,59,30.06,29.98,5,0,11,0.00
2013-8-8,86.0,77.4,69.5,76.8,72.7,68.6,99,86,68,30.02,29.95,5,0,5,0.00
2013-8-9,92.7,79.8,72.3,79.9,74.6,71.6,98,85,63,30.00,29.92,8,0,9,0.01
2013-8-10,94.3,78.2,72.9,82.8,74.4,71.2,98,89,61,30.04,29.97,6,0,9,0.19
2013-8-11,96.2,78.8,71.0,80.8,74.1,70.3,99,88,52,30.07,29.97,3,0,9,0.67
2013-8-12,93.3,79.4,69.9,79.7,74.4,69.6,100,86,56,30.00,29.89,2,0,9,0.44
2013-8-13,88.2,76.6,70.5,79.8,73.5,70.2,99,91,68,29.94,29.73,9,0,9,0.09
2013-8-14,78.2,70.4,60.4,71.5,66.8,59.5,99,89,69,30.06,29.78,1,0,9,0.00
2013-8-15,81.0,65.3,56.8,64.8,60.0,56.2,99,85,51,30.13,30.05,2,0,9,0.00
2013-8-16,71.5,63.1,54.9,65.4,60.1,54.3,99,90,74,30.15,30.07,1,0,9,0.00
2013-8-17,69.8,64.9,58.0,68.9,64.0,57.4,99,97,94,30.15,30.09,2,0,9,0.32
2013-8-18,78.3,70.5,65.6,71.7,68.1,64.7,99,92,76,30.17,30.07,4,0,9,0.23
2013-8-19,75.1,68.8,65.2,72.7,67.7,64.6,99,96,88,30.17,30.06,4,0,9,0.52
2013-8-20,83.2,72.6,63.4,75.3,69.6,63.1,100,91,71,30.15,30.08,3,0,9,0.01
2013-8-21,91.3,74.6,69.6,79.7,72.8,69.3,100,95,64,30.18,30.06,3,0,9,0.49
2013-8-22,92.3,78.0,68.8,78.6,72.7,68.4,100,86,52,30.12,29.95,4,0,9,0.00
2013-8-23,87.8,75.0,66.2,78.1,71.1,65.1,100,88,63,30.04,29.89,3,0,9,0.00
2013-8-24,87.0,71.4,61.6,68.3,64.3,60.8,98,81,50,30.26,30.04,3,0,9,0.00
2013-8-25,84.3,67.8,56.4,69.1,61.9,55.8,100,84,52,30.36,30.25,2,0,9,0.00
2013-8-26,87.0,67.3,52.0,67.7,59.5,51.5,99,80,40,30.29,30.08,3,0,9,0.00
2013-8-27,92.3,74.1,60.3,77.2,68.4,59.2,98,84,54,30.09,29.92,4,0,9,0.00
2013-8-28,81.8,74.7,66.6,77.1,72.5,66.0,99,93,79,29.95,29.81,2,0,9,0.00
2013-8-29,89.8,77.9,69.4,77.6,72.9,68.2,99,86,62,29.97,29.80,4,0,9,0.00
2013-8-30,93.0,75.6,65.4,74.8,68.9,64.8,99,83,47,30.03,29.90,2,0,9,0.00
2013-8-31,89.7,76.7,66.7,78.1,71.4,65.3,98,85,62,29.92,29.82,6,0,9,0.00
2013-9-1,91.0,76.4,68.8,79.3,72.3,68.1,99,88,63,29.85,29.73,7,0,9,0.89
2013-9-2,90.2,76.3,67.3,78.2,72.3,67.0,100,89,61,29.85,29.75,3,0,9,0.00
2013-9-3,92.3,77.3,68.7,79.5,72.9,68.1,99,88,57,29.89,29.75,4,0,9,0.01
2013-9-4,90.2,74.1,63.0,74.6,68.6,62.4,99,85,54,30.05,29.88,2,0,9,0.00
2013-9-5,90.5,72.3,61.0,70.7,64.4,60.3,100,80,42,30.06,29.99,3,0,9,0.00
2013-9-6,85.6,69.5,58.4,68.2,62.4,57.0,98,81,50,30.15,30.05,1,0,9,0.00
2013-9-7,84.3,68.1,54.5,70.5,62.2,54.0,99,84,54,30.11,29.94,3,0,9,0.00
2013-9-8,91.5,73.1,59.4,71.1,65.1,58.8,99,80,42,29.95,29.86,1,0,9,0.00
2013-9-9,92.6,74.8,62.8,75.1,68.5,62.2,99,83,50,30.10,29.94,1,0,9,0.00
2013-9-10,93.2,76.1,64.4,75.1,69.7,63.8,100,83,51,30.19,30.10,4,0,9,0.00
2013-9-11,94.3,76.5,64.6,76.5,69.4,63.8,99,81,49,30.16,30.02,7,0,9,0.00
2013-9-12,93.0,77.4,68.0,77.0,70.9,65.9,96,82,56,30.03,29.76,6,0,9,0.00
2013-9-13,87.7,72.7,60.1,69.1,64.1,54.2,98,78,42,29.86,29.72,5,0,9,0.00
2013-9-14,81.3,64.2,53.8,58.9,54.2,50.1,96,73,42,30.11,29.86,3,0,9,0.00
2013-9-15,87.5,64.6,48.5,66.0,57.2,47.7,99,81,43,30.20,30.09,4,0,9,0.00
2013-9-16,88.8,73.4,61.8,71.4,65.6,60.2,98,79,44,30.15,30.00,4,0,9,0.00
2013-9-17,82.7,65.5,52.6,61.5,56.2,51.2,97,76,38,30.29,30.15,3,0,9,0.00
2013-9-18,80.0,59.3,45.9,57.7,51.0,45.1,99,78,35,30.29,30.15,3,0,9,0.00
2013-9-19,80.1,64.2,51.7,65.3,58.5,50.6,97,84,51,30.17,30.04,4,0,9,0.00
2013-9-20,69.9,65.9,62.9,68.1,64.6,61.8,97,95,92,30.05,29.93,3,0,9,0.37
2013-9-21,77.9,69.0,63.9,71.9,67.0,63.0,98,94,80,29.94,29.69,3,0,9,0.33
2013-9-22,81.0,66.4,55.3,66.9,61.7,54.2,99,87,52,29.87,29.68,4,0,9,0.21
2013-9-23,79.3,60.8,50.5,59.7,54.4,50.0,99,82,47,30.04,29.86,3,0,9,0.00
2013-9-24,84.7,63.3,51.3,64.3,57.2,50.1,98,83,46,30.08,29.91,4,0,9,0.00
2013-9-25,79.3,61.5,48.8,65.7,57.6,48.1,99,88,55,29.93,29.84,3,0,9,0.00
2013-9-26,81.8,64.7,53.1,63.5,58.2,52.0,99,82,41,30.01,29.85,2,0,9,0.00
2013-9-27,79.9,59.7,46.4,63.3,54.2,45.6,99,84,49,30.16,30.00,2,0,9,0.00
2013-9-28,74.7,57.7,44.6,60.2,52.3,43.8,99,84,54,30.24,30.14,3,0,9,0.00
2013-9-29,79.7,58.8,45.4,61.2,52.2,44.6,99,82,45,30.15,30.01,2,0,9,0.00
2013-9-30,82.6,60.3,46.3,64.6,54.1,45.5,99,83,46,30.08,29.96,2,0,9,0.00
2013-10-1,89.4,64.3,48.1,67.6,57.3,47.3,99,82,41,30.09,29.98,4,0,9,0.00
2013-10-2,91.8,67.1,51.8,67.9,59.3,51.1,99,80,40,30.10,30.00,4,0,9,0.00
2013-10-3,90.1,69.3,55.4,69.7,61.6,54.5,99,81,42,30.10,30.01,3,0,9,0.00
2013-10-4,93.3,70.9,57.3,70.8,63.8,56.5,99,82,42,30.10,30.00,5,0,9,0.00
2013-10-5,93.6,71.7,57.5,72.5,64.4,56.9,99,82,45,30.08,29.98,4,0,9,0.00
2013-10-6,87.6,72.5,58.8,71.6,66.4,58.0,99,83,55,30.02,29.88,5,0,9,0.00
2013-10-7,73.5,69.6,61.0,71.0,67.9,56.8,98,95,86,29.97,29.80,9,0,9,1.47
2013-10-8,65.7,59.5,55.9,57.3,52.2,48.1,88,77,62,30.19,29.96,4,0,9,0.00
2013-10-9,67.6,58.4,53.9,58.3,53.4,49.9,95,84,70,30.18,30.08,5,0,9,0.21
2013-10-10,60.7,56.6,52.8,60.0,55.8,51.9,98,97,95,30.09,29.92,4,0,9,0.80
2013-10-11,69.1,62.2,58.3,64.3,60.1,57.2,98,93,83,29.94,29.88,3,0,9,0.00
2013-10-12,68.3,63.6,60.5,66.0,62.3,59.5,98,95,88,30.05,29.92,1,0,9,0.04
2013-10-13,66.6,63.0,60.7,64.4,61.8,60.0,99,96,91,30.18,30.05,3,0,9,0.16
2013-10-14,64.6,60.7,53.7,62.2,59.7,53.2,99,97,90,30.22,30.15,3,0,9,0.06
2013-10-15,78.2,61.7,48.8,62.5,56.7,48.5,99,86,55,30.19,30.02,3,0,9,0.00
2013-10-16,73.5,64.6,58.8,65.0,61.4,57.8,98,90,72,30.04,29.92,1,0,9,0.00
2013-10-17,73.6,65.8,59.4,66.2,62.6,58.0,98,90,70,29.94,29.80,5,0,9,0.01
2013-10-18,76.5,61.5,50.4,64.9,54.3,48.8,98,80,44,30.01,29.84,2,0,9,0.00
2013-10-19,68.0,59.4,53.3,64.2,57.8,52.2,98,94,84,29.96,29.77,4,0,9,0.02
2013-10-20,70.5,52.9,40.5,52.9,45.7,39.2,99,80,39,30.10,29.87,4,0,9,0.01
2013-10-21,73.6,50.9,34.2,56.6,44.0,33.4,99,81,41,30.15,29.97,3,0,9,0.00
2013-10-22,67.6,56.7,49.6,58.9,53.6,48.2,97,90,61,29.99,29.77,2,0,9,0.00
2013-10-23,69.3,57.8,43.0,58.2,48.3,35.1,98,74,38,29.97,29.65,10,0,10,0.00
2013-10-24,61.4,45.0,32.0,39.5,35.6,30.7,97,73,39,30.15,29.97,9,0,9,0.00
2013-10-25,60.8,44.4,31.2,38.1,34.0,28.7,96,71,34,30.34,30.14,5,0,5,0.00
2013-10-26,61.7,42.5,26.4,39.8,32.3,25.4,97,72,34,30.33,30.02,9,0,9,0.00
2013-10-27,70.7,51.4,37.1,46.8,40.8,35.5,97,71,35,30.09,30.00,4,0,4,0.00
2013-10-28,73.7,54.2,39.3,54.6,47.4,38.1,98,81,45,30.22,30.08,2,0,2,0.00
2013-10-29,75.5,58.4,49.0,59.7,53.0,47.9,97,84,54,30.30,30.20,2,0,2,0.00
2013-10-30,74.7,58.5,47.9,60.6,54.2,46.9,99,87,59,30.26,30.11,6,0,6,0.00
2013-10-31,73.5,63.7,52.9,62.7,57.8,52.0,98,82,64,30.16,29.86,10,0,10,0.00
2013-11-1,71.3,67.3,61.1,67.2,64.5,59.7,97,91,79,29.87,29.62,13,1,13,0.27
2013-11-2,72.3,59.3,44.8,59.9,51.7,41.6,99,80,39,29.92,29.66,6,0,6,0.01
2013-11-3,67.6,48.0,35.5,44.7,39.4,34.0,98,76,37,30.34,29.91,5,0,5,0.00
2013-11-4,59.1,41.4,29.7,40.9,33.5,28.6,98,77,40,30.53,30.34,6,0,6,0.01
2013-11-5,61.1,46.4,31.5,49.2,41.0,30.2,97,82,61,30.53,30.40,2,0,2,0.00
2013-11-6,75.1,54.6,39.4,56.8,48.7,38.4,98,83,50,30.40,30.07,4,0,4,0.00
2013-11-7,69.4,57.9,37.8,62.2,51.7,33.4,99,81,54,30.09,29.89,5,0,5,0.00
2013-11-8,59.8,42.5,29.7,35.9,30.6,26.4,95,67,31,30.30,30.07,7,0,7,0.00
2013-11-9,59.1,41.9,26.4,39.9,30.9,25.1,97,70,33,30.36,30.15,6,0,6,0.00
2013-11-10,72.5,49.3,32.0,43.8,35.6,30.7,98,66,29,30.20,30.02,7,0,7,0.00
2013-11-11,63.9,43.5,27.8,35.4,30.6,25.5,95,66,28,30.33,30.11,5,0,5,0.00
2013-11-12,59.4,40.0,30.1,42.5,33.5,21.6,97,80,44,30.40,30.02,9,0,9,0.03
2013-11-13,47.7,32.1,21.4,24.8,20.7,18.1,90,66,34,30.52,30.39,7,0,7,0.00
2013-11-14,60.1,36.3,19.6,29.5,23.3,17.9,96,67,24,30.45,30.31,7,0,7,0.00
2013-11-15,63.7,43.8,24.6,44.8,35.3,22.9,95,75,42,30.32,30.18,5,0,5,0.01
2013-11-16,62.2,54.2,46.4,57.3,52.1,44.1,97,93,83,30.24,30.17,2,0,2,0.02
2013-11-17,67.3,60.1,53.7,64.3,58.0,52.9,98,93,80,30.18,29.83,6,0,6,0.03
2013-11-18,76.3,63.8,49.8,66.1,52.0,30.5,99,69,41,29.93,29.76,7,0,7,0.10
2013-11-19,58.9,45.7,34.7,32.5,30.8,28.5,86,58,35,30.28,29.93,5,0,5,0.00
2013-11-20,56.3,41.8,32.7,34.9,31.3,27.3,92,68,42,30.43,30.28,2,0,2,0.00
2013-11-21,60.4,47.9,33.9,46.8,41.0,31.8,95,78,59,30.48,30.35,2,0,2,0.00
2013-11-22,70.2,56.8,44.1,59.8,51.9,41.8,94,84,69,30.37,30.04,6,0,6,0.00
2013-11-23,61.5,53.2,40.5,58.5,42.7,22.0,96,70,39,30.15,30.00,5,0,5,0.00
2013-11-24,41.1,31.2,20.2,24.8,11.7,3.2,80,46,23,30.53,30.14,10,0,10,0.00
2013-11-25,44.5,29.9,15.1,20.7,13.9,8.1,92,57,23,30.57,30.35,4,0,4,0.00
2013-11-26,62.6,41.6,35.6,62.3,34.8,16.2,99,79,42,30.37,29.59,8,0,8,1.06
2013-11-27,45.8,38.2,27.1,45.0,34.9,18.4,97,88,66,30.14,29.48,7,0,7,0.66
2013-11-28,44.8,29.8,19.3,25.2,20.6,16.2,93,71,38,30.46,30.13,3,0,3,0.00
2013-11-29,53.3,32.4,20.2,30.4,24.3,18.8,97,76,38,30.62,30.45,4,0,4,0.00
2013-11-30,49.1,31.9,20.1,33.0,25.9,18.6,96,81,52,30.65,30.36,4,0,4,0.00
2013-12-1,59.5,36.3,22.4,37.9,28.3,21.1,97,77,36,30.36,30.00,4,0,4,0.01
2013-12-2,64.0,42.0,27.9,43.7,35.2,26.4,97,80,45,30.01,29.79,2,0,2,0.00
2013-12-3,56.9,43.2,28.9,48.2,39.4,27.9,98,87,66,29.96,29.84,5,0,5,0.00
2013-12-4,65.6,54.6,47.4,58.1,52.2,45.7,97,92,75,30.05,29.94,3,0,3,0.01
2013-12-5,67.8,61.7,56.1,64.1,60.5,54.8,98,96,85,30.08,29.99,11,0,11,0.09
2013-12-6,76.7,69.5,64.2,65.8,63.8,62.0,98,83,67,30.02,29.92,17,1,17,0.00
2013-12-7,68.6,48.2,41.8,64.8,44.0,34.5,95,86,75,30.43,29.93,9,0,9,0.28
2013-12-8,42.2,35.7,32.8,35.0,31.7,25.2,96,86,67,30.45,30.28,4,0,4,0.37
2013-12-9,43.9,38.9,33.6,43.1,38.0,32.6,98,97,96,30.30,30.03,4,0,4,0.41
2013-12-10,47.3,40.8,25.5,44.5,38.9,24.3,98,93,75,30.30,29.89,4,0,4,0.48
2013-12-11,50.2,32.4,19.8,32.9,25.1,18.6,98,79,39,30.43,30.26,5,0,5,0.00
2013-12-12,45.5,32.5,21.3,26.8,22.2,16.3,96,70,32,30.40,30.25,5,0,5,0.00
2013-12-13,52.2,32.7,18.6,30.5,23.0,17.2,96,73,30,30.38,30.24,6,0,6,0.00
2013-12-14,46.8,39.1,34.0,41.1,35.8,30.5,96,89,58,30.27,29.76,2,0,3,0.88
2013-12-15,54.4,41.5,27.8,45.5,35.5,25.5,98,81,54,30.04,29.68,6,0,6,0.02
2013-12-16,56.7,37.7,24.3,37.3,30.4,23.1,97,79,41,30.15,30.03,6,0,6,0.00
2013-12-17,64.5,44.6,27.7,41.0,34.5,26.5,98,72,36,30.09,29.85,10,0,10,0.00
2013-12-18,49.6,35.6,24.6,34.1,24.2,18.5,93,67,31,30.27,29.99,7,0,7,0.00
2013-12-19,63.4,42.8,22.9,32.7,26.4,21.2,95,59,24,30.29,30.18,9,0,9,0.00
2013-12-20,67.0,53.3,39.7,54.3,44.6,31.2,92,73,58,30.20,30.07,12,0,12,0.00
2013-12-21,74.4,60.2,44.3,65.3,55.2,43.0,98,84,64,30.11,29.98,13,0,13,0.00
2013-12-22,75.6,68.8,63.1,68.2,64.7,60.8,98,87,69,30.05,29.95,15,1,15,0.27
2013-12-23,65.0,58.8,44.1,64.3,56.9,36.4,98,94,74,30.13,29.95,9,0,9,1.40
2013-12-24,48.3,39.5,27.0,36.6,27.9,14.7,78,64,47,30.43,30.12,6,0,6,0.00
2013-12-25,41.2,27.2,17.7,18.4,15.3,12.2,91,64,31,30.53,30.39,3,0,3,0.00
2013-12-26,53.2,32.9,19.0,29.9,24.2,16.8,93,74,35,30.40,30.22,4,0,4,0.00
2013-12-27,55.2,32.7,19.6,36.2,23.1,18.2,97,74,28,30.45,30.34,3,0,3,0.00
2013-12-28,59.6,39.0,20.4,40.3,28.8,19.0,97,73,29,30.39,30.12,2,0,4,0.00
2013-12-29,54.8,44.8,36.3,51.5,43.1,35.5,98,94,84,30.12,29.68,2,0,9,1.51
2013-12-30,53.7,41.3,30.6,48.8,37.2,29.9,99,86,65,30.12,29.89,4,0,4,0.00
2013-12-31,51.1,39.0,27.0,38.8,30.5,23.9,97,75,35,30.33,30.09,3,0,6,0.02
2014-1-1,51.4,35.6,26.1,31.8,27.4,24.6,96,76,38,30.40,30.12,4,0,4,0.00
2014-1-2,49.1,40.2,31.1,43.4,37.1,28.6,96,89,69,30.14,29.57,4,0,4,0.39